Izki — V7XV2 — position and weather

sailwx.info

Track history (hours):
 
Tides and Currents Weather Stations Pressure Air Temp Water Temp Dewpoint Dewpoint Depression Visibility Wind Speed Wind Dir Waves Ship Positions

Izki

Last reported at 2014-Jul-16 08:31 UTC. Time now 2014-Jul-29 12:43 UTC.
Position N 01°17' E 104°01'.
Warning: this ship's position is 13 days out of date.

Length 333 m; draft 21 m.

Type: Tanker. MMSI: 538004578.

Date/timePositionNaut miles runAvg speedWind from/ knotsBaromVisibWave heightAir tempDewpointWater temp
2014-Jul-16 08:31N 01°17' E 104°01'2 1.6
2014-Jul-16 07:33N 01°17' E 103°60'0 0.0
2014-Jul-16 06:30N 01°17' E 103°60'0 0.0
2014-Jul-16 05:24N 01°17' E 103°60'0 0.2
2014-Jul-16 04:33N 01°17' E 103°60'0 0.3
2014-Jul-16 03:33N 01°17' E 104°00'0 0.0
2014-Jul-16 02:33N 01°17' E 104°00'0 0.0
2014-Jul-16 01:33N 01°17' E 104°00'0 0.0
2014-Jul-16 00:33N 01°17' E 104°00'0 0.0
2014-Jul-15 23:33N 01°17' E 104°00'0 0.0
2014-Jul-15 22:29N 01°17' E 104°00'0 0.0
2014-Jul-15 21:32N 01°17' E 104°00'0 0.0
2014-Jul-15 20:32N 01°17' E 104°00'0 0.0
2014-Jul-15 19:32N 01°17' E 104°00'0 0.3
2014-Jul-15 18:32N 01°17' E 103°60'0 0.1
2014-Jul-15 17:17N 01°17' E 103°60'0 0.0
2014-Jul-15 16:14N 01°17' E 103°60'0 0.0
2014-Jul-15 15:26N 01°17' E 103°60'0 0.0
2014-Jul-15 14:26N 01°17' E 103°60'0 0.0
2014-Jul-15 13:29N 01°17' E 103°60'0 0.0
2014-Jul-15 12:29N 01°17' E 103°60'0 0.0
2014-Jul-15 11:17N 01°17' E 103°60'0 0.1
2014-Jul-15 10:32N 01°17' E 103°60'2 1.8
2014-Jul-15 09:33N 01°16' E 103°58'1 1.1
2014-Jul-15 08:33N 01°15' E 103°58'9 8.4
2014-Jul-15 07:32N 01°11' E 103°50'  
Track history (hours):
 
Tides and Currents Weather Stations Pressure Air Temp Water Temp Dewpoint Dewpoint Depression Visibility Wind Speed Wind Dir Waves Ship Positions

Izki

Last reported at 2014-Jul-16 08:31 UTC. Time now 2014-Jul-29 12:43 UTC.
Position N 01°17' E 104°01'.
Warning: this ship's position is 13 days out of date.

Length 333 m; draft 21 m.

Type: Tanker. MMSI: 538004578.

Date/timePositionNaut miles runAvg speedWind from/ knotsBaromVisibWave heightAir tempDewpointWater temp
2014-Jul-16 08:31N 01°17' E 104°01'2 1.6
2014-Jul-16 07:33N 01°17' E 103°60'0 0.0
2014-Jul-16 06:30N 01°17' E 103°60'0 0.0
2014-Jul-16 05:24N 01°17' E 103°60'0 0.2
2014-Jul-16 04:33N 01°17' E 103°60'0 0.3
2014-Jul-16 03:33N 01°17' E 104°00'0 0.0
2014-Jul-16 02:33N 01°17' E 104°00'0 0.0
2014-Jul-16 01:33N 01°17' E 104°00'0 0.0
2014-Jul-16 00:33N 01°17' E 104°00'0 0.0
2014-Jul-15 23:33N 01°17' E 104°00'0 0.0
2014-Jul-15 22:29N 01°17' E 104°00'0 0.0
2014-Jul-15 21:32N 01°17' E 104°00'0 0.0
2014-Jul-15 20:32N 01°17' E 104°00'0 0.0
2014-Jul-15 19:32N 01°17' E 104°00'0 0.3
2014-Jul-15 18:32N 01°17' E 103°60'0 0.1
2014-Jul-15 17:17N 01°17' E 103°60'0 0.0
2014-Jul-15 16:14N 01°17' E 103°60'0 0.0
2014-Jul-15 15:26N 01°17' E 103°60'0 0.0
2014-Jul-15 14:26N 01°17' E 103°60'0 0.0
2014-Jul-15 13:29N 01°17' E 103°60'0 0.0
2014-Jul-15 12:29N 01°17' E 103°60'0 0.0
2014-Jul-15 11:17N 01°17' E 103°60'0 0.1
2014-Jul-15 10:32N 01°17' E 103°60'2 1.8
2014-Jul-15 09:33N 01°16' E 103°58'1 1.1
2014-Jul-15 08:33N 01°15' E 103°58'9 8.4
2014-Jul-15 07:32N 01°11' E 103°50'  

Dump ship's entire track history